Tienen, Belgium
Current Conditions -  °F | °C
As of 4:25 PM on Saturday 20 Dec 2014 (Local Time) from EBBE Reporting Station
Broken Clouds Broken Clouds  
Wind Chill: 38°   Ceiling: 4300
Heat Index: 45°   Visibility: 6mi
Dew Point: 37°   Wind: 15mph
Humidity: 76%   Direction: 270°W
Pressure: 30.21"   Gusts: NA
Location:  50.81°N, 4.94°E
Report Text: EBBE 201525Z AUTO 27013KT 9999 FEW027/// SCT032/// BKN043/// 07/03 Q1023 BLU
Loading
Personal Weather Stations






























Interactive Weather Map New forecast layout! Learn more

10-Day Weather Forecast

Advertisements
Track Severe Weather on mobile